createdAt,value
2019-01-28T00:00:11.960Z,5.60
2019-01-28T00:02:39.561Z,5.23
2019-01-28T00:05:07.898Z,7.00
2019-01-28T00:07:35.498Z,4.07
2019-01-28T00:10:03.105Z,3.13
2019-01-28T00:12:30.666Z,4.97
2019-01-28T00:14:58.240Z,5.60
2019-01-28T00:17:25.833Z,2.47
2019-01-28T00:19:53.412Z,5.77
2019-01-28T00:22:21.779Z,4.50
2019-01-28T00:24:49.354Z,6.93
2019-01-28T00:27:17.691Z,2.87
2019-01-28T00:29:45.333Z,2.73
2019-01-28T00:32:12.904Z,4.23
2019-01-28T00:34:40.880Z,1.17
2019-01-28T00:37:08.527Z,2.47
2019-01-28T00:39:36.814Z,1.50
2019-01-28T00:42:04.388Z,1.97
2019-01-28T00:44:32.012Z,2.47
2019-01-28T00:46:59.573Z,1.63
2019-01-28T00:49:27.137Z,0.87
2019-01-28T00:51:54.748Z,1.27
2019-01-28T00:54:22.313Z,1.00
2019-01-28T00:56:49.884Z,1.03
2019-01-28T00:59:17.480Z,1.10
2019-01-28T01:01:45.050Z,0.50
2019-01-28T01:04:12.633Z,1.20
2019-01-28T01:06:40.238Z,0.40
2019-01-28T01:09:07.809Z,1.83
2019-01-28T01:11:36.196Z,1.07
2019-01-28T01:14:04.530Z,0.50
2019-01-28T01:16:32.110Z,0.97
2019-01-28T01:18:59.717Z,0.90
2019-01-28T01:21:27.297Z,0.70
2019-01-28T01:23:54.881Z,0.73
2019-01-28T01:26:22.485Z,0.77
2019-01-28T01:28:50.821Z,1.00
2019-01-28T01:31:18.405Z,0.40
2019-01-28T01:33:46.016Z,0.67
2019-01-28T01:36:13.583Z,1.10
2019-01-28T01:38:41.152Z,0.50
2019-01-28T01:41:08.744Z,1.90
2019-01-28T01:43:36.310Z,0.63
2019-01-28T01:46:03.920Z,0.83
2019-01-28T01:48:31.497Z,1.90
2019-01-28T01:50:59.079Z,1.70
2019-01-28T01:53:26.672Z,0.93
2019-01-28T01:55:54.242Z,0.37
2019-01-28T01:58:21.860Z,0.50
2019-01-28T02:00:49.438Z,3.07
2019-01-28T02:03:17.005Z,1.33
2019-01-28T02:05:44.609Z,0.73
2019-01-28T02:08:12.177Z,1.70
2019-01-28T02:10:39.805Z,0.60
2019-01-28T02:13:07.367Z,0.50
2019-01-28T02:15:35.699Z,0.97
2019-01-28T02:18:03.270Z,0.57
2019-01-28T02:20:30.882Z,0.83
2019-01-28T02:22:58.447Z,2.23
2019-01-28T02:25:26.016Z,3.23
2019-01-28T02:27:53.616Z,1.53
2019-01-28T02:30:21.191Z,4.90
2019-01-28T02:32:48.759Z,5.97
2019-01-28T02:35:16.348Z,4.60
2019-01-28T02:37:43.917Z,3.77
2019-01-28T02:40:12.392Z,2.47
2019-01-28T02:42:39.929Z,3.80
2019-01-28T02:45:07.501Z,4.90
2019-01-28T02:47:35.107Z,5.50
2019-01-28T02:50:02.676Z,2.77
2019-01-28T02:52:30.306Z,4.87
2019-01-28T02:54:58.216Z,4.83
2019-01-28T02:57:25.794Z,4.50
2019-01-28T02:59:53.666Z,4.67
2019-01-28T03:02:21.233Z,5.57
2019-01-28T03:04:48.801Z,2.47
2019-01-28T03:07:17.170Z,3.37
2019-01-28T03:09:44.737Z,5.67
2019-01-28T03:12:12.310Z,6.43
2019-01-28T03:14:39.923Z,3.27
2019-01-28T03:17:10.233Z,4.80
2019-01-28T03:19:37.798Z,4.83
2019-01-28T03:22:05.403Z,6.37
2019-01-28T03:24:32.977Z,5.73
2019-01-28T03:27:01.315Z,3.97
2019-01-28T03:29:28.923Z,3.80
2019-01-28T03:31:57.264Z,6.57
2019-01-28T03:34:24.844Z,3.47
2019-01-28T03:36:52.443Z,6.80
2019-01-28T03:39:20.010Z,4.40
2019-01-28T03:41:48.135Z,8.07
2019-01-28T03:44:15.700Z,4.53
2019-01-28T03:46:43.268Z,6.73
2019-01-28T03:49:10.875Z,5.90
2019-01-28T03:51:38.463Z,7.00
2019-01-28T03:54:06.049Z,5.53
2019-01-28T03:56:33.674Z,5.40
2019-01-28T03:59:01.253Z,7.20
2019-01-28T04:01:29.421Z,5.73
2019-01-28T04:03:57.082Z,3.87
2019-01-28T04:06:24.683Z,4.23
2019-01-28T04:08:52.278Z,5.03
2019-01-28T04:11:19.896Z,7.00
2019-01-28T04:13:47.486Z,6.60
2019-01-28T04:16:15.876Z,5.47
2019-01-28T04:18:43.453Z,9.60
2019-01-28T04:21:11.052Z,4.33
2019-01-28T04:23:38.682Z,5.33
2019-01-28T04:26:06.260Z,6.23
2019-01-28T04:28:34.435Z,5.63
2019-01-28T04:31:02.058Z,5.20
2019-01-28T04:33:29.641Z,3.50
2019-01-28T04:35:57.224Z,5.30
2019-01-28T04:38:24.835Z,5.63
2019-01-28T04:40:53.465Z,4.40
2019-01-28T04:43:21.046Z,2.87
2019-01-28T04:45:48.641Z,6.43
2019-01-28T04:48:16.216Z,3.10
2019-01-28T04:50:43.854Z,3.67
2019-01-28T04:53:12.192Z,3.93
2019-01-28T04:55:39.768Z,4.03
2019-01-28T04:58:07.367Z,1.80
2019-01-28T05:00:34.931Z,4.90
2019-01-28T05:03:03.265Z,0.90
2019-01-28T05:05:30.877Z,3.90
2019-01-28T05:07:59.227Z,0.77
2019-01-28T05:10:27.374Z,6.00
2019-01-28T05:12:55.480Z,1.53
2019-01-28T05:15:23.052Z,6.33
2019-01-28T05:17:51.393Z,1.33
2019-01-28T05:20:19.006Z,5.23
2019-01-28T05:22:47.338Z,7.53
2019-01-28T05:25:14.904Z,4.97
2019-01-28T05:27:42.508Z,3.70
2019-01-28T05:30:16.808Z,7.33
2019-01-28T05:32:44.382Z,3.83
2019-01-28T05:35:12.744Z,2.13
2019-01-28T05:37:40.323Z,4.17
2019-01-28T05:40:08.731Z,5.20
2019-01-28T05:42:36.303Z,4.27
2019-01-28T05:45:03.889Z,4.70
2019-01-28T05:47:31.508Z,6.03
2019-01-28T05:49:59.090Z,5.23
2019-01-28T05:52:26.664Z,6.13
2019-01-28T05:54:54.261Z,4.30
2019-01-28T05:57:21.876Z,3.23
2019-01-28T05:59:50.234Z,5.07
2019-01-28T06:02:18.134Z,7.63
2019-01-28T06:04:45.708Z,5.47
2019-01-28T06:07:13.309Z,6.60
2019-01-28T06:09:41.649Z,2.13
2019-01-28T06:12:09.240Z,3.30
2019-01-28T06:14:36.836Z,6.23
2019-01-28T06:17:04.407Z,6.20
2019-01-28T06:19:32.014Z,4.33
2019-01-28T06:21:59.583Z,5.60
2019-01-28T06:24:27.162Z,3.47
2019-01-28T06:26:55.519Z,2.63
2019-01-28T06:29:23.123Z,8.87
2019-01-28T06:31:50.737Z,3.53
2019-01-28T06:34:18.307Z,3.33
2019-01-28T06:36:45.889Z,3.87
2019-01-28T06:39:14.295Z,3.57
2019-01-28T06:41:41.823Z,3.77
2019-01-28T06:44:09.512Z,4.40
2019-01-28T06:46:37.094Z,3.67
2019-01-28T06:49:04.687Z,3.97
2019-01-28T06:51:32.305Z,5.53
2019-01-28T06:53:59.867Z,5.60
2019-01-28T06:56:27.496Z,4.70
2019-01-28T06:58:55.092Z,3.50
2019-01-28T07:01:22.635Z,3.83
2019-01-28T07:03:50.232Z,4.13
2019-01-28T07:06:19.187Z,4.13
2019-01-28T07:08:46.829Z,4.03
2019-01-28T07:11:14.372Z,4.23
2019-01-28T07:13:41.988Z,5.20
2019-01-28T07:16:09.599Z,1.73
2019-01-28T07:18:39.107Z,5.17
2019-01-28T07:21:04.792Z,4.27
2019-01-28T07:23:32.363Z,4.57
2019-01-28T07:25:59.927Z,2.47
2019-01-28T07:28:27.538Z,2.23
2019-01-28T07:30:55.113Z,6.67
2019-01-28T07:33:22.727Z,2.10
2019-01-28T07:35:50.305Z,2.10
2019-01-28T07:38:19.261Z,3.17
2019-01-28T07:40:46.884Z,1.57
2019-01-28T07:43:14.461Z,1.87
2019-01-28T07:45:45.399Z,1.87
2019-01-28T07:48:09.635Z,2.23
2019-01-28T07:50:37.202Z,2.40
2019-01-28T07:53:05.137Z,4.43
2019-01-28T07:55:32.709Z,2.62
2019-01-28T07:58:00.678Z,2.63
2019-01-28T08:00:28.309Z,3.47
2019-01-28T08:02:55.851Z,1.87
2019-01-28T08:05:24.213Z,2.13
2019-01-28T08:07:51.789Z,3.00
2019-01-28T08:10:20.154Z,2.10
2019-01-28T08:12:48.497Z,1.27
2019-01-28T08:15:16.067Z,2.97
2019-01-28T08:17:43.662Z,3.17
2019-01-28T08:20:13.718Z,1.43
2019-01-28T08:22:41.328Z,2.97
2019-01-28T08:25:09.404Z,1.10
2019-01-28T08:27:36.942Z,1.73
2019-01-28T08:30:10.607Z,3.40
2019-01-28T08:32:38.173Z,1.67
2019-01-28T08:35:05.785Z,6.07
2019-01-28T08:37:33.370Z,5.43
2019-01-28T08:40:00.944Z,2.63
2019-01-28T08:42:28.539Z,2.20
2019-01-28T08:44:56.107Z,1.53
2019-01-28T08:47:23.723Z,3.07
2019-01-28T08:49:52.059Z,2.60
2019-01-28T08:52:19.630Z,2.17
2019-01-28T08:54:47.606Z,1.63
2019-01-28T08:57:16.295Z,2.83
2019-01-28T08:59:44.350Z,2.37
2019-01-28T09:02:12.212Z,3.22
2019-01-28T09:04:39.782Z,2.17
2019-01-28T09:07:07.379Z,3.37
2019-01-28T09:09:34.972Z,1.30
2019-01-28T09:12:02.575Z,1.50
2019-01-28T09:14:30.176Z,2.70
2019-01-28T09:16:57.733Z,2.87
2019-01-28T09:19:25.335Z,4.03
2019-01-28T09:21:52.914Z,3.00
2019-01-28T09:24:20.531Z,1.47
2019-01-28T09:26:48.106Z,2.13
2019-01-28T09:29:15.675Z,2.47
2019-01-28T09:31:43.286Z,3.10
2019-01-28T09:34:10.854Z,2.63
2019-01-28T09:36:39.229Z,4.97
2019-01-28T09:39:06.836Z,5.20
2019-01-28T09:41:35.722Z,2.10
2019-01-28T09:44:02.004Z,3.97
2019-01-28T09:46:29.584Z,2.17
2019-01-28T09:48:57.197Z,2.27
2019-01-28T09:51:24.767Z,2.20
2019-01-28T09:53:52.341Z,2.47
2019-01-28T09:56:19.975Z,3.20
2019-01-28T09:58:48.280Z,3.93
2019-01-28T10:01:16.256Z,2.47
2019-01-28T10:03:43.829Z,3.07
2019-01-28T10:06:13.433Z,3.13
2019-01-28T10:08:41.033Z,3.67
2019-01-28T10:11:08.604Z,6.67
2019-01-28T10:13:36.257Z,3.73
2019-01-28T10:16:03.815Z,3.50
2019-01-28T10:18:31.385Z,4.03
2019-01-28T10:20:59.017Z,2.07
2019-01-28T10:23:26.575Z,2.83
2019-01-28T10:25:57.727Z,3.50
2019-01-28T10:28:22.536Z,3.17
2019-01-28T10:30:50.112Z,4.67
2019-01-28T10:33:17.734Z,3.47
2019-01-28T10:35:45.302Z,5.27
2019-01-28T10:38:14.775Z,6.53
2019-01-28T10:40:42.345Z,3.87
2019-01-28T10:43:09.920Z,2.10
2019-01-28T10:45:37.514Z,3.40
2019-01-28T10:48:05.102Z,4.20
2019-01-28T10:50:32.699Z,2.90
2019-01-28T10:53:00.273Z,3.10
2019-01-28T10:55:27.852Z,3.93
2019-01-28T10:57:55.445Z,4.00
2019-01-28T11:00:28.815Z,5.20
2019-01-28T11:02:56.442Z,2.00
2019-01-28T11:05:24.041Z,3.50
2019-01-28T11:07:51.618Z,3.70
2019-01-28T11:10:19.257Z,2.30
2019-01-28T11:12:46.900Z,2.03
2019-01-28T11:15:14.505Z,3.67
2019-01-28T11:17:41.980Z,1.70
2019-01-28T11:20:09.575Z,2.20
2019-01-28T11:22:37.177Z,3.37
2019-01-28T11:25:07.549Z,2.00
2019-01-28T11:27:35.088Z,2.10
2019-01-28T11:30:05.542Z,1.57
2019-01-28T11:32:33.111Z,1.97
2019-01-28T11:35:00.868Z,1.63
2019-01-28T11:37:28.369Z,1.87
2019-01-28T11:39:55.929Z,4.07
2019-01-28T11:42:23.488Z,2.13
2019-01-28T11:44:51.170Z,3.50
2019-01-28T11:47:18.828Z,3.30
2019-01-28T11:49:46.328Z,3.60
2019-01-28T11:52:13.916Z,2.93
2019-01-28T11:54:41.492Z,5.67
2019-01-28T11:57:09.829Z,3.77
2019-01-28T11:59:37.435Z,5.97
2019-01-28T12:02:05.011Z,4.97
2019-01-28T12:04:32.809Z,6.13
2019-01-28T12:07:00.384Z,6.63
2019-01-28T12:09:27.962Z,8.33
2019-01-28T12:11:55.590Z,6.50
2019-01-28T12:14:23.903Z,8.67
2019-01-28T12:16:51.565Z,6.27
2019-01-28T12:19:19.142Z,4.70
2019-01-28T12:21:46.707Z,3.27
2019-01-28T12:24:14.330Z,1.43
2019-01-28T12:26:41.873Z,2.07
2019-01-28T12:29:09.441Z,1.37
2019-01-28T12:31:37.065Z,1.83
2019-01-28T12:34:05.408Z,1.77
2019-01-28T12:36:33.014Z,2.93
2019-01-28T12:39:01.354Z,2.80
2019-01-28T12:41:28.930Z,2.57
2019-01-28T12:43:56.548Z,4.00
2019-01-28T12:46:24.135Z,6.70
2019-01-28T12:48:51.717Z,8.30
2019-01-28T12:51:19.316Z,12.07
2019-01-28T12:53:46.932Z,7.03
2019-01-28T12:56:14.499Z,11.80
2019-01-28T12:58:42.101Z,4.27
2019-01-28T13:01:09.673Z,4.13
2019-01-28T13:03:37.235Z,5.47
2019-01-28T13:06:04.835Z,4.50
2019-01-28T13:08:32.412Z,3.77
2019-01-28T13:10:59.990Z,4.70
2019-01-28T13:13:28.360Z,8.27
2019-01-28T13:15:55.940Z,5.27
2019-01-28T13:18:23.516Z,7.17
2019-01-28T13:20:51.122Z,7.97
2019-01-28T13:23:18.683Z,6.50
2019-01-28T13:25:46.266Z,7.90
2019-01-28T13:28:14.625Z,6.20
2019-01-28T13:30:42.186Z,7.87
2019-01-28T13:33:10.145Z,5.10
2019-01-28T13:35:37.736Z,7.10
2019-01-28T13:38:06.065Z,9.00
2019-01-28T13:40:33.668Z,5.77
2019-01-28T13:43:01.239Z,5.37
2019-01-28T13:45:29.584Z,4.63
2019-01-28T13:47:57.699Z,8.07
2019-01-28T13:50:26.036Z,8.03
2019-01-28T13:52:53.610Z,6.20
2019-01-28T13:55:22.121Z,5.83
2019-01-28T13:57:50.469Z,8.90
2019-01-28T14:00:26.490Z,6.13
2019-01-28T14:02:54.085Z,8.77
2019-01-28T14:05:21.661Z,11.17
2019-01-28T14:07:49.236Z,8.47
2019-01-28T14:10:17.610Z,11.33
2019-01-28T14:12:45.422Z,9.67
2019-01-28T14:15:13.005Z,9.63
2019-01-28T14:17:40.618Z,5.27
2019-01-28T14:20:08.969Z,6.97
2019-01-28T14:22:36.545Z,4.87
2019-01-28T14:25:04.186Z,7.37
2019-01-28T14:27:31.753Z,4.77
2019-01-28T14:29:59.324Z,7.13
2019-01-28T14:32:27.493Z,8.23
2019-01-28T14:34:55.063Z,6.55
2019-01-28T14:37:22.627Z,4.10
2019-01-28T14:39:50.310Z,7.47
2019-01-28T14:42:17.904Z,8.93
2019-01-28T14:44:45.485Z,5.93
2019-01-28T14:47:13.134Z,4.47
2019-01-28T14:49:40.729Z,2.87
2019-01-28T14:52:08.302Z,2.47
2019-01-28T14:54:36.287Z,3.77
2019-01-28T14:57:03.853Z,6.53
2019-01-28T14:59:32.195Z,5.47
2019-01-28T15:02:00.811Z,6.93
2019-01-28T15:04:28.387Z,4.90
2019-01-28T15:06:56.291Z,6.63
2019-01-28T15:09:23.902Z,6.10
2019-01-28T15:11:51.471Z,5.23
2019-01-28T15:14:19.811Z,5.90
2019-01-28T15:16:47.456Z,6.43
2019-01-28T15:19:26.839Z,7.03
2019-01-28T15:21:55.887Z,5.10
2019-01-28T15:24:23.473Z,5.77
2019-01-28T15:26:51.047Z,5.93
2019-01-28T15:29:18.676Z,6.13
2019-01-28T15:31:46.261Z,7.60
2019-01-28T15:34:13.838Z,5.73
2019-01-28T15:36:41.433Z,5.67
2019-01-28T15:39:09.359Z,6.23
2019-01-28T15:41:36.934Z,6.40
2019-01-28T15:44:05.276Z,4.87
2019-01-28T15:46:32.953Z,9.40
2019-01-28T15:49:00.527Z,4.97
2019-01-28T15:51:28.107Z,10.87
2019-01-28T15:53:55.725Z,17.80
2019-01-28T15:56:23.302Z,9.70
2019-01-28T15:58:50.874Z,19.93
2019-01-28T16:01:19.456Z,14.27
2019-01-28T16:03:47.036Z,10.07
2019-01-28T16:06:15.383Z,7.40
2019-01-28T16:08:44.181Z,14.27
2019-01-28T16:11:11.755Z,9.23
2019-01-28T16:13:39.329Z,19.00
2019-01-28T16:16:08.182Z,12.83
2019-01-28T16:18:35.748Z,12.43
2019-01-28T16:21:03.344Z,16.93
2019-01-28T16:23:31.788Z,13.37
2019-01-28T16:25:59.372Z,14.57
2019-01-28T16:28:26.931Z,11.73
2019-01-28T16:30:54.554Z,24.03
2019-01-28T16:33:22.128Z,12.43
2019-01-28T16:35:49.702Z,6.53
2019-01-28T16:38:18.024Z,4.47
2019-01-28T16:40:45.596Z,5.77
2019-01-28T16:43:13.169Z,2.40
2019-01-28T16:45:40.849Z,5.47
2019-01-28T16:48:08.390Z,4.10
2019-01-28T16:50:35.954Z,7.40
2019-01-28T16:53:03.591Z,6.00
2019-01-28T16:55:31.930Z,4.27
2019-01-28T16:57:59.518Z,2.97
2019-01-28T17:00:32.247Z,3.57
2019-01-28T17:02:59.827Z,3.50
2019-01-28T17:05:27.400Z,2.30
2019-01-28T17:07:55.035Z,3.33
2019-01-28T17:10:22.610Z,3.07
2019-01-28T17:12:50.174Z,4.00
2019-01-28T17:15:18.143Z,3.20
2019-01-28T17:17:45.710Z,4.30
2019-01-28T17:20:16.268Z,4.60
2019-01-28T17:22:43.865Z,5.32
2019-01-28T17:25:11.436Z,8.00
2019-01-28T17:27:39.001Z,3.63
2019-01-28T17:30:06.659Z,4.70
2019-01-28T17:32:34.182Z,3.87
2019-01-28T17:35:02.525Z,6.63
2019-01-28T17:37:30.400Z,8.40
2019-01-28T17:39:57.974Z,7.60
2019-01-28T17:42:25.536Z,8.33
2019-01-28T17:44:54.107Z,5.80
2019-01-28T17:47:21.672Z,11.33
2019-01-28T17:49:49.275Z,15.70
2019-01-28T17:52:16.888Z,7.03
2019-01-28T17:54:44.458Z,16.03
2019-01-28T17:57:12.036Z,14.70
2019-01-28T17:59:39.683Z,9.43
2019-01-28T18:02:07.246Z,8.17
2019-01-28T18:04:34.813Z,4.83
2019-01-28T18:07:02.495Z,11.43
2019-01-28T18:09:30.828Z,9.17
2019-01-28T18:11:58.398Z,8.33
2019-01-28T18:14:26.022Z,4.17
2019-01-28T18:16:53.596Z,4.80
2019-01-28T18:19:21.166Z,9.43
2019-01-28T18:21:48.768Z,3.97
2019-01-28T18:24:16.330Z,4.80
2019-01-28T18:26:43.973Z,3.67
2019-01-28T18:29:11.530Z,6.10
2019-01-28T18:31:39.106Z,5.57
2019-01-28T18:34:06.713Z,3.43
2019-01-28T18:36:34.329Z,5.83
2019-01-28T18:39:01.877Z,1.97
2019-01-28T18:41:29.470Z,3.67
2019-01-28T18:43:58.124Z,5.23
2019-01-28T18:46:25.737Z,3.93
2019-01-28T18:48:53.310Z,6.40
2019-01-28T18:51:20.895Z,3.90
2019-01-28T18:53:48.544Z,5.20
2019-01-28T18:56:16.534Z,7.13
2019-01-28T18:58:44.102Z,6.77
2019-01-28T19:01:12.266Z,2.80
2019-01-28T19:03:39.303Z,2.13
2019-01-28T19:06:09.469Z,5.30
2019-01-28T19:08:39.559Z,4.33
2019-01-28T19:11:15.854Z,5.47
2019-01-28T19:13:43.449Z,8.50
2019-01-28T19:16:13.957Z,7.90
2019-01-28T19:18:44.234Z,6.10
2019-01-28T19:21:11.818Z,7.40
2019-01-28T19:23:39.404Z,6.07
2019-01-28T19:26:07.128Z,3.83
2019-01-28T19:28:34.732Z,8.57
2019-01-28T19:31:02.307Z,5.43
2019-01-28T19:33:29.882Z,6.90
2019-01-28T19:35:57.496Z,4.27
2019-01-28T19:38:25.082Z,7.37
2019-01-28T19:40:52.685Z,9.83
2019-01-28T19:43:20.265Z,6.87
2019-01-28T19:45:48.133Z,9.23
2019-01-28T19:48:15.712Z,6.77
2019-01-28T19:50:43.583Z,7.73
2019-01-28T19:53:11.158Z,6.37
2019-01-28T19:55:38.763Z,8.57
2019-01-28T19:58:06.347Z,5.37
2019-01-28T20:00:33.917Z,7.03
2019-01-28T20:03:01.495Z,10.07
2019-01-28T20:05:29.116Z,10.00
2019-01-28T20:07:56.688Z,6.33
2019-01-28T20:10:25.566Z,7.27
2019-01-28T20:12:53.198Z,10.50
2019-01-28T20:15:20.716Z,6.27
2019-01-28T20:17:48.366Z,9.30
2019-01-28T20:20:15.957Z,10.17
2019-01-28T20:22:43.539Z,8.80
2019-01-28T20:25:12.297Z,13.23
2019-01-28T20:27:39.880Z,10.10
2019-01-28T20:30:10.423Z,10.57
2019-01-28T20:32:38.888Z,8.07
2019-01-28T20:35:06.472Z,11.50
2019-01-28T20:37:34.804Z,7.87
2019-01-28T20:40:02.419Z,7.70
2019-01-28T20:42:30.000Z,7.10
2019-01-28T20:44:57.888Z,5.73
2019-01-28T20:47:25.511Z,4.30
2019-01-28T20:49:53.852Z,4.40
2019-01-28T20:52:21.429Z,4.70
2019-01-28T20:54:49.051Z,2.43
2019-01-28T20:57:16.594Z,4.20
2019-01-28T20:59:44.182Z,3.50
2019-01-28T21:02:11.807Z,3.00
2019-01-28T21:04:39.352Z,2.80
2019-01-28T21:07:07.698Z,3.03
2019-01-28T21:09:35.313Z,2.57
2019-01-28T21:12:02.870Z,4.43
2019-01-28T21:14:30.493Z,3.70
2019-01-28T21:16:58.060Z,2.83
2019-01-28T21:19:25.632Z,3.23
2019-01-28T21:21:55.392Z,1.70
2019-01-28T21:24:22.956Z,2.60
2019-01-28T21:26:50.526Z,4.60
2019-01-28T21:29:18.838Z,4.23
2019-01-28T21:31:46.415Z,5.13
2019-01-28T21:34:14.760Z,3.83
2019-01-28T21:36:42.379Z,3.33
2019-01-28T21:39:09.952Z,5.17
2019-01-28T21:41:37.519Z,9.57
2019-01-28T21:44:05.197Z,5.73
2019-01-28T21:46:33.107Z,6.87
2019-01-28T21:49:00.565Z,8.15
2019-01-28T21:51:28.994Z,6.73
2019-01-28T21:53:56.576Z,8.60
2019-01-28T21:56:24.131Z,5.97
2019-01-28T21:58:51.748Z,6.10
2019-01-28T22:01:19.323Z,6.10
2019-01-28T22:03:46.930Z,7.53
2019-01-28T22:06:14.884Z,6.37
2019-01-28T22:08:43.502Z,5.90
2019-01-28T22:11:11.073Z,9.70
2019-01-28T22:13:39.457Z,5.17
2019-01-28T22:16:07.835Z,10.40
2019-01-28T22:18:35.373Z,8.07
2019-01-28T22:21:02.968Z,5.60
2019-01-28T22:23:30.538Z,8.00
2019-01-28T22:25:58.177Z,6.73
2019-01-28T22:28:25.712Z,8.03
2019-01-28T22:30:53.282Z,10.57
2019-01-28T22:33:20.894Z,9.03
2019-01-28T22:35:49.204Z,9.30
2019-01-28T22:38:16.815Z,8.97
2019-01-28T22:40:45.318Z,10.93
2019-01-28T22:43:12.757Z,7.33
2019-01-28T22:45:40.363Z,9.13
2019-01-28T22:48:07.933Z,6.80
2019-01-28T22:50:35.546Z,7.70
2019-01-28T22:53:03.172Z,7.67
2019-01-28T22:55:30.688Z,13.63
2019-01-28T22:57:58.280Z,7.47
2019-01-28T23:00:49.290Z,9.77
2019-01-28T23:03:16.903Z,11.43
2019-01-28T23:05:44.479Z,9.75
2019-01-28T23:08:12.046Z,6.93
2019-01-28T23:10:39.663Z,7.00
2019-01-28T23:13:07.215Z,6.30
2019-01-28T23:15:34.822Z,9.80
2019-01-28T23:18:02.392Z,8.97
2019-01-28T23:20:29.959Z,6.07
2019-01-28T23:22:57.557Z,10.27
2019-01-28T23:25:25.136Z,12.00
2019-01-28T23:27:53.841Z,10.13
2019-01-28T23:30:21.392Z,8.13
2019-01-28T23:32:48.983Z,11.60
2019-01-28T23:35:17.325Z,10.20
2019-01-28T23:37:44.898Z,12.40
2019-01-28T23:40:13.266Z,9.33
2019-01-28T23:42:41.608Z,8.93
2019-01-28T23:45:09.180Z,6.87
2019-01-28T23:47:36.781Z,6.60
2019-01-28T23:50:05.122Z,12.80
2019-01-28T23:52:32.719Z,7.07
2019-01-28T23:55:01.071Z,10.83
2019-01-28T23:57:28.633Z,9.63
2019-01-28T23:59:56.226Z,5.57
